sensor_id;sensor_type;location;lat;lon;timestamp;P1;durP1;ratioP1;P2;durP2;ratioP2
21299;SDS011;10809;49.476;11.016;2023-07-02T00:02:18;0.28;;;0.28;;
21299;SDS011;10809;49.476;11.016;2023-07-02T00:04:49;0.50;;;0.50;;
21299;SDS011;10809;49.476;11.016;2023-07-02T00:07:22;0.57;;;0.57;;
21299;SDS011;10809;49.476;11.016;2023-07-02T00:09:53;0.47;;;0.30;;
21299;SDS011;10809;49.476;11.016;2023-07-02T00:12:23;0.40;;;0.40;;
21299;SDS011;10809;49.476;11.016;2023-07-02T00:15:00;0.50;;;0.50;;
21299;SDS011;10809;49.476;11.016;2023-07-02T00:17:31;0.40;;;0.40;;
21299;SDS011;10809;49.476;11.016;2023-07-02T00:20:02;0.30;;;0.30;;
21299;SDS011;10809;49.476;11.016;2023-07-02T00:22:42;0.40;;;0.40;;
21299;SDS011;10809;49.476;11.016;2023-07-02T00:25:14;0.63;;;0.43;;
21299;SDS011;10809;49.476;11.016;2023-07-02T00:27:45;0.50;;;0.50;;
21299;SDS011;10809;49.476;11.016;2023-07-02T00:30:25;0.60;;;0.60;;
21299;SDS011;10809;49.476;11.016;2023-07-02T00:32:55;0.70;;;0.70;;
21299;SDS011;10809;49.476;11.016;2023-07-02T00:35:26;0.52;;;0.50;;
21299;SDS011;10809;49.476;11.016;2023-07-02T00:37:57;0.68;;;0.52;;
21299;SDS011;10809;49.476;11.016;2023-07-02T00:40:31;0.75;;;0.70;;
21299;SDS011;10809;49.476;11.016;2023-07-02T00:43:01;0.55;;;0.50;;
21299;SDS011;10809;49.476;11.016;2023-07-02T00:45:31;0.60;;;0.60;;
21299;SDS011;10809;49.476;11.016;2023-07-02T00:48:08;0.47;;;0.40;;
21299;SDS011;10809;49.476;11.016;2023-07-02T00:50:40;0.60;;;0.57;;
21299;SDS011;10809;49.476;11.016;2023-07-02T00:53:11;0.88;;;0.88;;
21299;SDS011;10809;49.476;11.016;2023-07-02T00:55:41;0.60;;;0.60;;
21299;SDS011;10809;49.476;11.016;2023-07-02T00:58:12;0.60;;;0.60;;
21299;SDS011;10809;49.476;11.016;2023-07-02T01:00:45;0.60;;;0.60;;
21299;SDS011;10809;49.476;11.016;2023-07-02T01:03:16;0.70;;;0.70;;
21299;SDS011;10809;49.476;11.016;2023-07-02T01:05:50;0.70;;;0.70;;
21299;SDS011;10809;49.476;11.016;2023-07-02T01:08:24;0.70;;;0.70;;
21299;SDS011;10809;49.476;11.016;2023-07-02T01:10:58;0.88;;;0.82;;
21299;SDS011;10809;49.476;11.016;2023-07-02T01:13:29;1.23;;;0.90;;
21299;SDS011;10809;49.476;11.016;2023-07-02T01:16:21;0.57;;;0.55;;
21299;SDS011;10809;49.476;11.016;2023-07-02T01:18:52;0.60;;;0.60;;
21299;SDS011;10809;49.476;11.016;2023-07-02T01:21:27;2.38;;;0.52;;
21299;SDS011;10809;49.476;11.016;2023-07-02T01:23:58;0.57;;;0.57;;
21299;SDS011;10809;49.476;11.016;2023-07-02T01:26:31;1.80;;;0.80;;
21299;SDS011;10809;49.476;11.016;2023-07-02T01:29:17;0.82;;;0.82;;
21299;SDS011;10809;49.476;11.016;2023-07-02T01:31:49;0.73;;;0.70;;
21299;SDS011;10809;49.476;11.016;2023-07-02T01:34:19;0.60;;;0.60;;
21299;SDS011;10809;49.476;11.016;2023-07-02T01:36:49;0.60;;;0.60;;
21299;SDS011;10809;49.476;11.016;2023-07-02T01:39:21;0.50;;;0.50;;
21299;SDS011;10809;49.476;11.016;2023-07-02T01:41:55;0.57;;;0.57;;
21299;SDS011;10809;49.476;11.016;2023-07-02T01:44:37;0.68;;;0.68;;
21299;SDS011;10809;49.476;11.016;2023-07-02T01:47:09;0.50;;;0.50;;
21299;SDS011;10809;49.476;11.016;2023-07-02T01:49:41;0.93;;;0.82;;
21299;SDS011;10809;49.476;11.016;2023-07-02T01:52:12;0.65;;;0.65;;
21299;SDS011;10809;49.476;11.016;2023-07-02T01:54:43;0.85;;;0.50;;
21299;SDS011;10809;49.476;11.016;2023-07-02T01:57:13;0.88;;;0.80;;
21299;SDS011;10809;49.476;11.016;2023-07-02T01:59:44;0.60;;;0.60;;
21299;SDS011;10809;49.476;11.016;2023-07-02T02:02:17;0.47;;;0.47;;
21299;SDS011;10809;49.476;11.016;2023-07-02T02:04:48;0.75;;;0.75;;
21299;SDS011;10809;49.476;11.016;2023-07-02T02:07:18;0.68;;;0.68;;
21299;SDS011;10809;49.476;11.016;2023-07-02T02:09:49;0.98;;;0.70;;
21299;SDS011;10809;49.476;11.016;2023-07-02T02:12:19;2.33;;;0.73;;
21299;SDS011;10809;49.476;11.016;2023-07-02T02:14:49;1.38;;;0.70;;
21299;SDS011;10809;49.476;11.016;2023-07-02T02:17:20;0.50;;;0.50;;
21299;SDS011;10809;49.476;11.016;2023-07-02T02:19:50;0.57;;;0.57;;
21299;SDS011;10809;49.476;11.016;2023-07-02T02:22:21;0.63;;;0.63;;
21299;SDS011;10809;49.476;11.016;2023-07-02T02:24:52;0.63;;;0.63;;
21299;SDS011;10809;49.476;11.016;2023-07-02T02:27:25;0.73;;;0.55;;
21299;SDS011;10809;49.476;11.016;2023-07-02T02:29:56;1.70;;;0.90;;
21299;SDS011;10809;49.476;11.016;2023-07-02T02:32:27;1.17;;;0.68;;
21299;SDS011;10809;49.476;11.016;2023-07-02T02:34:58;2.25;;;0.65;;
21299;SDS011;10809;49.476;11.016;2023-07-02T02:37:29;0.85;;;0.80;;
21299;SDS011;10809;49.476;11.016;2023-07-02T02:40:01;0.57;;;0.57;;
21299;SDS011;10809;49.476;11.016;2023-07-02T02:42:36;0.95;;;0.52;;
21299;SDS011;10809;49.476;11.016;2023-07-02T02:45:13;0.73;;;0.73;;
21299;SDS011;10809;49.476;11.016;2023-07-02T02:47:45;0.85;;;0.75;;
21299;SDS011;10809;49.476;11.016;2023-07-02T02:50:19;0.82;;;0.60;;
21299;SDS011;10809;49.476;11.016;2023-07-02T02:52:50;1.00;;;0.60;;
21299;SDS011;10809;49.476;11.016;2023-07-02T02:55:23;0.60;;;0.60;;
21299;SDS011;10809;49.476;11.016;2023-07-02T02:57:54;0.90;;;0.63;;
21299;SDS011;10809;49.476;11.016;2023-07-02T03:00:25;0.50;;;0.50;;
21299;SDS011;10809;49.476;11.016;2023-07-02T03:02:59;1.38;;;0.50;;
21299;SDS011;10809;49.476;11.016;2023-07-02T03:05:30;0.57;;;0.57;;
21299;SDS011;10809;49.476;11.016;2023-07-02T03:08:01;0.65;;;0.63;;
21299;SDS011;10809;49.476;11.016;2023-07-02T03:10:31;0.60;;;0.60;;
21299;SDS011;10809;49.476;11.016;2023-07-02T03:13:02;0.80;;;0.70;;
21299;SDS011;10809;49.476;11.016;2023-07-02T03:15:33;2.15;;;0.75;;
21299;SDS011;10809;49.476;11.016;2023-07-02T03:18:03;1.35;;;0.90;;
21299;SDS011;10809;49.476;11.016;2023-07-02T03:20:34;0.70;;;0.60;;
21299;SDS011;10809;49.476;11.016;2023-07-02T03:23:04;0.70;;;0.70;;
21299;SDS011;10809;49.476;11.016;2023-07-02T03:25:35;0.50;;;0.50;;
21299;SDS011;10809;49.476;11.016;2023-07-02T03:28:05;0.40;;;0.40;;
21299;SDS011;10809;49.476;11.016;2023-07-02T03:30:36;0.43;;;0.43;;
21299;SDS011;10809;49.476;11.016;2023-07-02T03:33:08;0.43;;;0.43;;
21299;SDS011;10809;49.476;11.016;2023-07-02T03:35:45;0.32;;;0.32;;
21299;SDS011;10809;49.476;11.016;2023-07-02T03:38:18;0.68;;;0.68;;
21299;SDS011;10809;49.476;11.016;2023-07-02T03:40:49;0.50;;;0.50;;
21299;SDS011;10809;49.476;11.016;2023-07-02T03:43:20;0.38;;;0.38;;
21299;SDS011;10809;49.476;11.016;2023-07-02T03:45:51;0.60;;;0.60;;
21299;SDS011;10809;49.476;11.016;2023-07-02T03:48:22;0.40;;;0.40;;
21299;SDS011;10809;49.476;11.016;2023-07-02T03:50:53;0.57;;;0.55;;
21299;SDS011;10809;49.476;11.016;2023-07-02T03:53:26;0.90;;;0.55;;
21299;SDS011;10809;49.476;11.016;2023-07-02T03:55:57;0.57;;;0.57;;
21299;SDS011;10809;49.476;11.016;2023-07-02T03:58:33;0.63;;;0.50;;
21299;SDS011;10809;49.476;11.016;2023-07-02T04:01:07;0.95;;;0.47;;
21299;SDS011;10809;49.476;11.016;2023-07-02T04:03:37;0.40;;;0.40;;
21299;SDS011;10809;49.476;11.016;2023-07-02T04:06:08;0.50;;;0.50;;
21299;SDS011;10809;49.476;11.016;2023-07-02T04:08:38;0.52;;;0.50;;
21299;SDS011;10809;49.476;11.016;2023-07-02T04:11:09;0.70;;;0.70;;
21299;SDS011;10809;49.476;11.016;2023-07-02T04:13:41;0.50;;;0.47;;
21299;SDS011;10809;49.476;11.016;2023-07-02T04:16:23;0.50;;;0.50;;
21299;SDS011;10809;49.476;11.016;2023-07-02T04:18:57;0.47;;;0.45;;
21299;SDS011;10809;49.476;11.016;2023-07-02T04:21:28;0.47;;;0.47;;
21299;SDS011;10809;49.476;11.016;2023-07-02T04:23:58;1.27;;;0.60;;
21299;SDS011;10809;49.476;11.016;2023-07-02T04:26:32;0.38;;;0.38;;
21299;SDS011;10809;49.476;11.016;2023-07-02T04:29:02;0.47;;;0.47;;
21299;SDS011;10809;49.476;11.016;2023-07-02T04:31:33;3.15;;;0.60;;
21299;SDS011;10809;49.476;11.016;2023-07-02T04:34:06;0.32;;;0.32;;
21299;SDS011;10809;49.476;11.016;2023-07-02T04:36:37;0.40;;;0.40;;
21299;SDS011;10809;49.476;11.016;2023-07-02T04:39:14;0.40;;;0.40;;
21299;SDS011;10809;49.476;11.016;2023-07-02T04:41:45;0.70;;;0.52;;
21299;SDS011;10809;49.476;11.016;2023-07-02T04:44:15;0.60;;;0.60;;
21299;SDS011;10809;49.476;11.016;2023-07-02T04:46:46;0.60;;;0.57;;
21299;SDS011;10809;49.476;11.016;2023-07-02T04:49:23;0.63;;;0.63;;
21299;SDS011;10809;49.476;11.016;2023-07-02T04:51:56;1.52;;;0.57;;
21299;SDS011;10809;49.476;11.016;2023-07-02T04:54:27;0.68;;;0.40;;
21299;SDS011;10809;49.476;11.016;2023-07-02T04:56:57;1.10;;;0.68;;
21299;SDS011;10809;49.476;11.016;2023-07-02T04:59:29;1.00;;;0.70;;
21299;SDS011;10809;49.476;11.016;2023-07-02T05:02:03;3.00;;;0.75;;
21299;SDS011;10809;49.476;11.016;2023-07-02T05:04:37;0.47;;;0.47;;
21299;SDS011;10809;49.476;11.016;2023-07-02T05:07:10;0.95;;;0.50;;
21299;SDS011;10809;49.476;11.016;2023-07-02T05:09:41;0.70;;;0.40;;
21299;SDS011;10809;49.476;11.016;2023-07-02T05:12:12;0.75;;;0.75;;
21299;SDS011;10809;49.476;11.016;2023-07-02T05:14:42;0.57;;;0.40;;
21299;SDS011;10809;49.476;11.016;2023-07-02T05:17:13;0.63;;;0.60;;
21299;SDS011;10809;49.476;11.016;2023-07-02T05:19:47;0.70;;;0.57;;
21299;SDS011;10809;49.476;11.016;2023-07-02T05:22:27;1.15;;;0.75;;
21299;SDS011;10809;49.476;11.016;2023-07-02T05:24:58;0.90;;;0.77;;
21299;SDS011;10809;49.476;11.016;2023-07-02T05:27:29;2.67;;;0.88;;
21299;SDS011;10809;49.476;11.016;2023-07-02T05:30:05;2.28;;;0.93;;
21299;SDS011;10809;49.476;11.016;2023-07-02T05:32:37;5.57;;;1.63;;
21299;SDS011;10809;49.476;11.016;2023-07-02T05:35:12;3.25;;;1.27;;
21299;SDS011;10809;49.476;11.016;2023-07-02T05:37:43;1.98;;;1.27;;
21299;SDS011;10809;49.476;11.016;2023-07-02T05:40:15;1.85;;;1.20;;
21299;SDS011;10809;49.476;11.016;2023-07-02T05:42:47;2.63;;;1.20;;
21299;SDS011;10809;49.476;11.016;2023-07-02T05:45:27;2.80;;;1.25;;
21299;SDS011;10809;49.476;11.016;2023-07-02T05:47:59;3.40;;;0.75;;
21299;SDS011;10809;49.476;11.016;2023-07-02T05:50:30;3.60;;;1.17;;
21299;SDS011;10809;49.476;11.016;2023-07-02T05:53:00;1.85;;;1.15;;
21299;SDS011;10809;49.476;11.016;2023-07-02T05:55:31;1.15;;;1.02;;
21299;SDS011;10809;49.476;11.016;2023-07-02T05:58:01;1.70;;;1.23;;
21299;SDS011;10809;49.476;11.016;2023-07-02T06:00:33;2.25;;;1.55;;
21299;SDS011;10809;49.476;11.016;2023-07-02T06:03:03;1.15;;;1.05;;
21299;SDS011;10809;49.476;11.016;2023-07-02T06:05:34;3.08;;;1.52;;
21299;SDS011;10809;49.476;11.016;2023-07-02T06:08:04;1.55;;;1.45;;
21299;SDS011;10809;49.476;11.016;2023-07-02T06:10:35;2.55;;;1.98;;
21299;SDS011;10809;49.476;11.016;2023-07-02T06:13:06;2.97;;;1.98;;
21299;SDS011;10809;49.476;11.016;2023-07-02T06:15:37;3.78;;;2.13;;
21299;SDS011;10809;49.476;11.016;2023-07-02T06:18:07;2.53;;;1.92;;
21299;SDS011;10809;49.476;11.016;2023-07-02T06:20:39;4.20;;;2.75;;
21299;SDS011;10809;49.476;11.016;2023-07-02T06:23:10;4.20;;;2.75;;
21299;SDS011;10809;49.476;11.016;2023-07-02T06:25:40;3.17;;;2.25;;
21299;SDS011;10809;49.476;11.016;2023-07-02T06:28:11;3.58;;;2.65;;
21299;SDS011;10809;49.476;11.016;2023-07-02T06:30:42;3.08;;;2.50;;
21299;SDS011;10809;49.476;11.016;2023-07-02T06:33:12;5.30;;;2.72;;
21299;SDS011;10809;49.476;11.016;2023-07-02T06:35:43;3.85;;;2.83;;
21299;SDS011;10809;49.476;11.016;2023-07-02T06:38:13;3.58;;;3.10;;
21299;SDS011;10809;49.476;11.016;2023-07-02T06:40:44;5.00;;;2.90;;
21299;SDS011;10809;49.476;11.016;2023-07-02T06:43:14;3.97;;;3.13;;
21299;SDS011;10809;49.476;11.016;2023-07-02T06:45:48;3.15;;;2.70;;
21299;SDS011;10809;49.476;11.016;2023-07-02T06:48:21;4.45;;;2.85;;
21299;SDS011;10809;49.476;11.016;2023-07-02T06:50:52;4.10;;;3.05;;
21299;SDS011;10809;49.476;11.016;2023-07-02T06:53:35;6.18;;;3.10;;
21299;SDS011;10809;49.476;11.016;2023-07-02T06:56:10;5.07;;;3.58;;
21299;SDS011;10809;49.476;11.016;2023-07-02T06:58:43;3.15;;;2.65;;
21299;SDS011;10809;49.476;11.016;2023-07-02T07:01:14;6.25;;;3.13;;
21299;SDS011;10809;49.476;11.016;2023-07-02T07:03:44;6.25;;;2.80;;
21299;SDS011;10809;49.476;11.016;2023-07-02T07:06:15;4.05;;;2.72;;
21299;SDS011;10809;49.476;11.016;2023-07-02T07:08:45;5.35;;;3.53;;
21299;SDS011;10809;49.476;11.016;2023-07-02T07:11:16;5.00;;;3.22;;
21299;SDS011;10809;49.476;11.016;2023-07-02T07:13:46;5.05;;;3.50;;
21299;SDS011;10809;49.476;11.016;2023-07-02T07:16:26;5.20;;;3.65;;
21299;SDS011;10809;49.476;11.016;2023-07-02T07:18:57;7.00;;;3.80;;
21299;SDS011;10809;49.476;11.016;2023-07-02T07:21:27;4.32;;;3.72;;
21299;SDS011;10809;49.476;11.016;2023-07-02T07:23:58;6.82;;;3.60;;
21299;SDS011;10809;49.476;11.016;2023-07-02T07:26:28;4.13;;;2.65;;
21299;SDS011;10809;49.476;11.016;2023-07-02T07:29:03;5.47;;;3.45;;
21299;SDS011;10809;49.476;11.016;2023-07-02T07:31:33;5.55;;;3.45;;
21299;SDS011;10809;49.476;11.016;2023-07-02T07:34:04;5.32;;;3.22;;
21299;SDS011;10809;49.476;11.016;2023-07-02T07:36:53;5.90;;;3.42;;
21299;SDS011;10809;49.476;11.016;2023-07-02T07:39:23;5.18;;;3.22;;
21299;SDS011;10809;49.476;11.016;2023-07-02T07:41:54;6.00;;;3.88;;
21299;SDS011;10809;49.476;11.016;2023-07-02T07:44:24;4.72;;;3.35;;
21299;SDS011;10809;49.476;11.016;2023-07-02T07:46:59;5.05;;;3.10;;
21299;SDS011;10809;49.476;11.016;2023-07-02T07:49:29;3.05;;;2.75;;
21299;SDS011;10809;49.476;11.016;2023-07-02T07:52:06;3.55;;;2.70;;
21299;SDS011;10809;49.476;11.016;2023-07-02T07:54:43;3.95;;;2.70;;
21299;SDS011;10809;49.476;11.016;2023-07-02T07:57:25;5.28;;;3.05;;
21299;SDS011;10809;49.476;11.016;2023-07-02T07:59:56;5.40;;;3.28;;
21299;SDS011;10809;49.476;11.016;2023-07-02T08:02:26;5.35;;;3.42;;
21299;SDS011;10809;49.476;11.016;2023-07-02T08:04:57;3.53;;;2.65;;
21299;SDS011;10809;49.476;11.016;2023-07-02T08:07:27;3.15;;;2.45;;
21299;SDS011;10809;49.476;11.016;2023-07-02T08:10:01;2.33;;;2.08;;
21299;SDS011;10809;49.476;11.016;2023-07-02T08:12:41;4.43;;;2.22;;
21299;SDS011;10809;49.476;11.016;2023-07-02T08:15:11;2.65;;;2.22;;
21299;SDS011;10809;49.476;11.016;2023-07-02T08:17:42;3.67;;;2.40;;
21299;SDS011;10809;49.476;11.016;2023-07-02T08:20:24;2.50;;;2.30;;
21299;SDS011;10809;49.476;11.016;2023-07-02T08:22:58;4.07;;;2.13;;
21299;SDS011;10809;49.476;11.016;2023-07-02T08:25:28;2.95;;;1.67;;
21299;SDS011;10809;49.476;11.016;2023-07-02T08:28:02;2.50;;;1.90;;
21299;SDS011;10809;49.476;11.016;2023-07-02T08:30:42;1.85;;;1.67;;
21299;SDS011;10809;49.476;11.016;2023-07-02T08:33:18;2.17;;;1.48;;
21299;SDS011;10809;49.476;11.016;2023-07-02T08:35:48;2.38;;;1.67;;
21299;SDS011;10809;49.476;11.016;2023-07-02T08:38:19;2.08;;;1.75;;
21299;SDS011;10809;49.476;11.016;2023-07-02T08:40:49;2.03;;;1.83;;
21299;SDS011;10809;49.476;11.016;2023-07-02T08:43:20;2.10;;;1.67;;
21299;SDS011;10809;49.476;11.016;2023-07-02T08:45:53;4.47;;;2.00;;
21299;SDS011;10809;49.476;11.016;2023-07-02T08:48:27;2.92;;;2.00;;
21299;SDS011;10809;49.476;11.016;2023-07-02T08:51:02;3.00;;;2.15;;
21299;SDS011;10809;49.476;11.016;2023-07-02T08:53:33;2.20;;;1.70;;
21299;SDS011;10809;49.476;11.016;2023-07-02T08:56:13;1.60;;;1.50;;
21299;SDS011;10809;49.476;11.016;2023-07-02T08:58:44;2.65;;;2.13;;
21299;SDS011;10809;49.476;11.016;2023-07-02T09:01:15;2.55;;;1.80;;
21299;SDS011;10809;49.476;11.016;2023-07-02T09:03:45;1.60;;;1.50;;
21299;SDS011;10809;49.476;11.016;2023-07-02T09:06:17;1.63;;;1.48;;
21299;SDS011;10809;49.476;11.016;2023-07-02T09:09:03;1.77;;;1.50;;
21299;SDS011;10809;49.476;11.016;2023-07-02T09:11:46;3.80;;;1.83;;
21299;SDS011;10809;49.476;11.016;2023-07-02T09:14:30;2.85;;;1.80;;
21299;SDS011;10809;49.476;11.016;2023-07-02T09:17:01;2.33;;;1.85;;
21299;SDS011;10809;49.476;11.016;2023-07-02T09:19:47;2.25;;;1.45;;
21299;SDS011;10809;49.476;11.016;2023-07-02T09:22:20;1.50;;;1.27;;
21299;SDS011;10809;49.476;11.016;2023-07-02T09:24:51;4.90;;;1.70;;
21299;SDS011;10809;49.476;11.016;2023-07-02T09:27:34;3.08;;;1.70;;
21299;SDS011;10809;49.476;11.016;2023-07-02T09:30:10;2.00;;;1.83;;
21299;SDS011;10809;49.476;11.016;2023-07-02T09:32:42;2.75;;;1.83;;
21299;SDS011;10809;49.476;11.016;2023-07-02T09:35:14;2.42;;;1.90;;
21299;SDS011;10809;49.476;11.016;2023-07-02T09:37:45;2.15;;;1.92;;
21299;SDS011;10809;49.476;11.016;2023-07-02T09:40:16;2.45;;;1.60;;
21299;SDS011;10809;49.476;11.016;2023-07-02T09:42:48;1.90;;;1.55;;
21299;SDS011;10809;49.476;11.016;2023-07-02T09:45:22;1.58;;;1.45;;
21299;SDS011;10809;49.476;11.016;2023-07-02T09:47:57;2.67;;;1.88;;
21299;SDS011;10809;49.476;11.016;2023-07-02T09:50:35;2.63;;;1.40;;
21299;SDS011;10809;49.476;11.016;2023-07-02T09:53:08;1.33;;;1.23;;
21299;SDS011;10809;49.476;11.016;2023-07-02T09:55:39;1.50;;;1.40;;
21299;SDS011;10809;49.476;11.016;2023-07-02T09:58:18;2.05;;;1.40;;
21299;SDS011;10809;49.476;11.016;2023-07-02T10:00:49;2.65;;;1.77;;
21299;SDS011;10809;49.476;11.016;2023-07-02T10:03:30;1.58;;;1.48;;
21299;SDS011;10809;49.476;11.016;2023-07-02T10:06:06;1.65;;;1.55;;
21299;SDS011;10809;49.476;11.016;2023-07-02T10:08:40;2.28;;;1.90;;
21299;SDS011;10809;49.476;11.016;2023-07-02T10:11:11;2.78;;;2.20;;
21299;SDS011;10809;49.476;11.016;2023-07-02T10:13:58;2.35;;;1.77;;
21299;SDS011;10809;49.476;11.016;2023-07-02T10:16:29;2.28;;;1.98;;
21299;SDS011;10809;49.476;11.016;2023-07-02T10:19:11;2.33;;;2.00;;
21299;SDS011;10809;49.476;11.016;2023-07-02T10:21:42;1.80;;;1.55;;
21299;SDS011;10809;49.476;11.016;2023-07-02T10:24:16;2.72;;;1.70;;
21299;SDS011;10809;49.476;11.016;2023-07-02T10:26:57;1.88;;;1.70;;
21299;SDS011;10809;49.476;11.016;2023-07-02T10:29:29;3.22;;;2.30;;
21299;SDS011;10809;49.476;11.016;2023-07-02T10:32:02;1.95;;;1.85;;
21299;SDS011;10809;49.476;11.016;2023-07-02T10:34:35;2.38;;;2.17;;
21299;SDS011;10809;49.476;11.016;2023-07-02T10:37:05;2.72;;;1.98;;
21299;SDS011;10809;49.476;11.016;2023-07-02T10:39:38;2.92;;;2.03;;
21299;SDS011;10809;49.476;11.016;2023-07-02T10:42:09;3.92;;;2.30;;
21299;SDS011;10809;49.476;11.016;2023-07-02T10:44:49;3.15;;;1.70;;
21299;SDS011;10809;49.476;11.016;2023-07-02T10:47:21;2.25;;;1.80;;
21299;SDS011;10809;49.476;11.016;2023-07-02T10:49:54;1.88;;;1.73;;
21299;SDS011;10809;49.476;11.016;2023-07-02T10:52:36;3.55;;;2.08;;
21299;SDS011;10809;49.476;11.016;2023-07-02T10:55:07;2.35;;;1.45;;
21299;SDS011;10809;49.476;11.016;2023-07-02T10:57:38;3.78;;;1.88;;
21299;SDS011;10809;49.476;11.016;2023-07-02T11:00:09;2.35;;;2.13;;
21299;SDS011;10809;49.476;11.016;2023-07-02T11:02:40;1.77;;;1.67;;
21299;SDS011;10809;49.476;11.016;2023-07-02T11:05:10;2.58;;;2.15;;
21299;SDS011;10809;49.476;11.016;2023-07-02T11:07:44;2.05;;;1.83;;
21299;SDS011;10809;49.476;11.016;2023-07-02T11:10:24;2.72;;;2.03;;
21299;SDS011;10809;49.476;11.016;2023-07-02T11:12:55;2.20;;;2.00;;
21299;SDS011;10809;49.476;11.016;2023-07-02T11:15:25;3.15;;;1.88;;
21299;SDS011;10809;49.476;11.016;2023-07-02T11:18:18;1.75;;;1.65;;
21299;SDS011;10809;49.476;11.016;2023-07-02T11:20:51;3.17;;;2.30;;
21299;SDS011;10809;49.476;11.016;2023-07-02T11:23:28;4.78;;;2.17;;
21299;SDS011;10809;49.476;11.016;2023-07-02T11:26:01;2.78;;;2.33;;
21299;SDS011;10809;49.476;11.016;2023-07-02T11:28:35;2.58;;;2.30;;
21299;SDS011;10809;49.476;11.016;2023-07-02T11:31:06;3.47;;;2.30;;
21299;SDS011;10809;49.476;11.016;2023-07-02T11:33:40;4.25;;;2.47;;
21299;SDS011;10809;49.476;11.016;2023-07-02T11:36:19;3.65;;;2.47;;
21299;SDS011;10809;49.476;11.016;2023-07-02T11:38:51;2.63;;;2.42;;
21299;SDS011;10809;49.476;11.016;2023-07-02T11:41:22;4.22;;;2.58;;
21299;SDS011;10809;49.476;11.016;2023-07-02T11:43:52;2.63;;;2.33;;
21299;SDS011;10809;49.476;11.016;2023-07-02T11:46:29;3.38;;;2.45;;
21299;SDS011;10809;49.476;11.016;2023-07-02T11:49:00;4.95;;;3.08;;
21299;SDS011;10809;49.476;11.016;2023-07-02T11:51:31;4.22;;;3.08;;
21299;SDS011;10809;49.476;11.016;2023-07-02T11:54:01;4.15;;;3.60;;
21299;SDS011;10809;49.476;11.016;2023-07-02T11:56:33;4.43;;;3.53;;
21299;SDS011;10809;49.476;11.016;2023-07-02T11:59:03;7.18;;;3.47;;
21299;SDS011;10809;49.476;11.016;2023-07-02T12:01:34;6.18;;;3.92;;
21299;SDS011;10809;49.476;11.016;2023-07-02T12:04:04;6.32;;;3.45;;
21299;SDS011;10809;49.476;11.016;2023-07-02T12:06:37;4.95;;;3.63;;
21299;SDS011;10809;49.476;11.016;2023-07-02T12:09:08;4.53;;;3.63;;
21299;SDS011;10809;49.476;11.016;2023-07-02T12:11:39;5.63;;;4.05;;
21299;SDS011;10809;49.476;11.016;2023-07-02T12:14:10;5.63;;;3.42;;
21299;SDS011;10809;49.476;11.016;2023-07-02T12:16:40;5.40;;;3.40;;
21299;SDS011;10809;49.476;11.016;2023-07-02T12:19:11;8.07;;;4.28;;
21299;SDS011;10809;49.476;11.016;2023-07-02T12:21:41;7.07;;;4.50;;
21299;SDS011;10809;49.476;11.016;2023-07-02T12:24:15;6.45;;;4.40;;
21299;SDS011;10809;49.476;11.016;2023-07-02T12:26:45;6.05;;;4.55;;
21299;SDS011;10809;49.476;11.016;2023-07-02T12:29:16;7.60;;;4.32;;
21299;SDS011;10809;49.476;11.016;2023-07-02T12:31:49;5.72;;;3.95;;
21299;SDS011;10809;49.476;11.016;2023-07-02T12:36:58;5.68;;;3.90;;
21299;SDS011;10809;49.476;11.016;2023-07-02T12:39:30;7.10;;;4.35;;
21299;SDS011;10809;49.476;11.016;2023-07-02T12:42:01;5.57;;;4.20;;
21299;SDS011;10809;49.476;11.016;2023-07-02T12:44:32;5.20;;;4.32;;
21299;SDS011;10809;49.476;11.016;2023-07-02T12:47:02;5.57;;;4.72;;
21299;SDS011;10809;49.476;11.016;2023-07-02T12:49:36;6.95;;;4.38;;
21299;SDS011;10809;49.476;11.016;2023-07-02T12:52:08;5.72;;;4.20;;
21299;SDS011;10809;49.476;11.016;2023-07-02T12:54:42;5.70;;;3.60;;
21299;SDS011;10809;49.476;11.016;2023-07-02T12:57:12;8.18;;;4.68;;
21299;SDS011;10809;49.476;11.016;2023-07-02T12:59:43;6.80;;;5.18;;
21299;SDS011;10809;49.476;11.016;2023-07-02T13:02:14;6.25;;;4.63;;
21299;SDS011;10809;49.476;11.016;2023-07-02T13:04:44;9.00;;;4.40;;
21299;SDS011;10809;49.476;11.016;2023-07-02T13:07:15;6.80;;;4.22;;
21299;SDS011;10809;49.476;11.016;2023-07-02T13:09:55;4.47;;;3.97;;
21299;SDS011;10809;49.476;11.016;2023-07-02T13:12:29;6.68;;;4.65;;
21299;SDS011;10809;49.476;11.016;2023-07-02T13:15:00;6.95;;;4.50;;
21299;SDS011;10809;49.476;11.016;2023-07-02T13:17:40;6.60;;;4.65;;
21299;SDS011;10809;49.476;11.016;2023-07-02T13:20:12;6.65;;;4.50;;
21299;SDS011;10809;49.476;11.016;2023-07-02T13:22:48;6.43;;;3.97;;
21299;SDS011;10809;49.476;11.016;2023-07-02T13:25:29;6.97;;;4.95;;
21299;SDS011;10809;49.476;11.016;2023-07-02T13:28:01;5.68;;;4.53;;
21299;SDS011;10809;49.476;11.016;2023-07-02T13:30:32;7.60;;;4.50;;
21299;SDS011;10809;49.476;11.016;2023-07-02T13:33:03;6.72;;;4.25;;
21299;SDS011;10809;49.476;11.016;2023-07-02T13:35:36;5.95;;;4.25;;
21299;SDS011;10809;49.476;11.016;2023-07-02T13:38:09;5.88;;;4.80;;
21299;SDS011;10809;49.476;11.016;2023-07-02T13:40:53;6.90;;;5.22;;
21299;SDS011;10809;49.476;11.016;2023-07-02T13:43:26;5.90;;;5.03;;
21299;SDS011;10809;49.476;11.016;2023-07-02T13:45:58;8.40;;;5.68;;
21299;SDS011;10809;49.476;11.016;2023-07-02T13:48:28;9.10;;;5.20;;
21299;SDS011;10809;49.476;11.016;2023-07-02T13:50:59;8.07;;;5.70;;
21299;SDS011;10809;49.476;11.016;2023-07-02T13:53:29;7.70;;;5.30;;
21299;SDS011;10809;49.476;11.016;2023-07-02T13:56:00;7.22;;;5.35;;
21299;SDS011;10809;49.476;11.016;2023-07-02T14:01:43;8.90;;;6.53;;
21299;SDS011;10809;49.476;11.016;2023-07-02T14:04:15;11.70;;;8.30;;
21299;SDS011;10809;49.476;11.016;2023-07-02T14:06:51;13.98;;;8.82;;
21299;SDS011;10809;49.476;11.016;2023-07-02T14:09:21;13.70;;;8.55;;
21299;SDS011;10809;49.476;11.016;2023-07-02T14:11:52;10.65;;;7.03;;
21299;SDS011;10809;49.476;11.016;2023-07-02T14:14:23;9.82;;;6.53;;
21299;SDS011;10809;49.476;11.016;2023-07-02T14:16:54;8.52;;;6.03;;
21299;SDS011;10809;49.476;11.016;2023-07-02T14:19:24;12.43;;;6.47;;
21299;SDS011;10809;49.476;11.016;2023-07-02T14:21:55;9.25;;;6.15;;
21299;SDS011;10809;49.476;11.016;2023-07-02T14:24:26;7.97;;;6.10;;
21299;SDS011;10809;49.476;11.016;2023-07-02T14:26:56;8.90;;;5.72;;
21299;SDS011;10809;49.476;11.016;2023-07-02T14:29:27;7.55;;;5.85;;
21299;SDS011;10809;49.476;11.016;2023-07-02T14:31:58;9.90;;;5.93;;
21299;SDS011;10809;49.476;11.016;2023-07-02T14:34:29;8.55;;;5.47;;
21299;SDS011;10809;49.476;11.016;2023-07-02T14:36:59;7.30;;;5.68;;
21299;SDS011;10809;49.476;11.016;2023-07-02T14:39:30;8.32;;;6.10;;
21299;SDS011;10809;49.476;11.016;2023-07-02T14:42:03;11.20;;;6.65;;
21299;SDS011;10809;49.476;11.016;2023-07-02T14:44:36;8.98;;;5.70;;
21299;SDS011;10809;49.476;11.016;2023-07-02T14:47:10;8.82;;;6.57;;
21299;SDS011;10809;49.476;11.016;2023-07-02T14:49:43;8.80;;;6.25;;
21299;SDS011;10809;49.476;11.016;2023-07-02T14:52:14;8.98;;;5.72;;
21299;SDS011;10809;49.476;11.016;2023-07-02T14:54:45;8.63;;;6.15;;
21299;SDS011;10809;49.476;11.016;2023-07-02T14:57:16;11.50;;;6.40;;
21299;SDS011;10809;49.476;11.016;2023-07-02T14:59:49;8.57;;;5.75;;
21299;SDS011;10809;49.476;11.016;2023-07-02T15:02:21;8.52;;;6.50;;
21299;SDS011;10809;49.476;11.016;2023-07-02T15:04:52;9.98;;;6.13;;
21299;SDS011;10809;49.476;11.016;2023-07-02T15:07:26;7.38;;;5.72;;
21299;SDS011;10809;49.476;11.016;2023-07-02T15:09:57;9.77;;;6.25;;
21299;SDS011;10809;49.476;11.016;2023-07-02T15:12:28;9.00;;;6.50;;